createdAt,value
2018-09-01T00:00:51.036Z,13.60
2018-09-01T00:03:18.586Z,13.50
2018-09-01T00:05:46.160Z,13.40
2018-09-01T00:08:13.704Z,13.30
2018-09-01T00:10:41.423Z,13.30
2018-09-01T00:13:08.981Z,13.20
2018-09-01T00:15:36.556Z,13.20
2018-09-01T00:18:04.132Z,13.10
2018-09-01T00:20:31.672Z,13.10
2018-09-01T00:22:59.236Z,13.00
2018-09-01T00:25:26.830Z,13.00
2018-09-01T00:27:54.384Z,12.90
2018-09-01T00:30:21.948Z,12.90
2018-09-01T00:32:49.484Z,12.90
2018-09-01T00:35:17.006Z,12.90
2018-09-01T00:37:50.256Z,12.90
2018-09-01T00:40:17.800Z,12.90
2018-09-01T00:42:45.348Z,12.90
2018-09-01T00:45:12.898Z,13.00
2018-09-01T00:47:40.450Z,13.00
2018-09-01T00:50:08.005Z,13.00
2018-09-01T00:52:35.555Z,13.10
2018-09-01T00:55:03.121Z,13.10
2018-09-01T00:57:30.669Z,13.10
2018-09-01T00:59:58.211Z,13.20
2018-09-01T01:02:25.756Z,13.20
2018-09-01T01:04:53.293Z,13.20
2018-09-01T01:07:20.833Z,13.30
2018-09-01T01:09:48.397Z,13.30
2018-09-01T01:12:15.946Z,13.30
2018-09-01T01:14:43.500Z,13.30
2018-09-01T01:17:11.044Z,13.30
2018-09-01T01:19:39.454Z,13.30
2018-09-01T01:22:07.024Z,13.30
2018-09-01T01:24:34.578Z,13.20
2018-09-01T01:27:02.142Z,13.10
2018-09-01T01:29:29.672Z,13.10
2018-09-01T01:31:57.237Z,13.00
2018-09-01T01:34:24.768Z,12.90
2018-09-01T01:36:52.338Z,12.80
2018-09-01T01:39:19.876Z,12.70
2018-09-01T01:41:47.407Z,12.60
2018-09-01T01:44:14.956Z,12.60
2018-09-01T01:46:42.723Z,12.50
2018-09-01T01:49:10.491Z,12.40
2018-09-01T01:51:38.057Z,12.30
2018-09-01T01:54:06.021Z,12.20
2018-09-01T01:56:33.561Z,12.10
2018-09-01T01:59:01.099Z,12.10
2018-09-01T02:01:28.641Z,12.00
2018-09-01T02:03:56.189Z,11.90
2018-09-01T02:06:26.083Z,11.90
2018-09-01T02:08:53.698Z,11.80
2018-09-01T02:11:21.244Z,11.80
2018-09-01T02:13:48.795Z,11.70
2018-09-01T02:16:16.328Z,11.70
2018-09-01T02:18:43.881Z,11.70
2018-09-01T02:21:11.419Z,11.70
2018-09-01T02:23:38.962Z,11.70
2018-09-01T02:26:06.497Z,11.60
2018-09-01T02:28:34.066Z,11.60
2018-09-01T02:31:01.623Z,11.60
2018-09-01T02:33:29.178Z,11.50
2018-09-01T02:35:56.712Z,11.50
2018-09-01T02:38:24.264Z,11.50
2018-09-01T02:40:51.797Z,11.50
2018-09-01T02:43:19.344Z,11.40
2018-09-01T02:45:46.876Z,11.40
2018-09-01T02:48:14.404Z,11.30
2018-09-01T02:50:41.953Z,11.30
2018-09-01T02:53:09.530Z,11.30
2018-09-01T02:55:37.100Z,11.40
2018-09-01T02:58:04.644Z,11.50
2018-09-01T03:00:35.780Z,11.70
2018-09-01T03:03:03.378Z,11.70
2018-09-01T03:05:30.930Z,11.90
2018-09-01T03:07:58.494Z,12.00
2018-09-01T03:10:26.041Z,12.10
2018-09-01T03:12:53.585Z,12.10
2018-09-01T03:15:21.129Z,12.10
2018-09-01T03:17:48.690Z,12.10
2018-09-01T03:20:16.244Z,12.10
2018-09-01T03:22:43.870Z,12.10
2018-09-01T03:25:11.390Z,12.10
2018-09-01T03:27:38.927Z,12.10
2018-09-01T03:30:06.694Z,12.10
2018-09-01T03:32:34.264Z,12.10
2018-09-01T03:35:01.826Z,12.00
2018-09-01T03:37:29.370Z,12.00
2018-09-01T03:39:56.924Z,12.00
2018-09-01T03:42:24.456Z,11.90
2018-09-01T03:44:51.992Z,11.90
2018-09-01T03:47:19.533Z,11.80
2018-09-01T03:49:47.092Z,11.90
2018-09-01T03:52:14.628Z,11.90
2018-09-01T03:54:42.190Z,11.90
2018-09-01T03:57:09.854Z,11.90
2018-09-01T03:59:37.402Z,11.90
2018-09-01T04:02:04.952Z,11.90
2018-09-01T04:04:32.494Z,11.90
2018-09-01T04:07:00.020Z,11.90
2018-09-01T04:09:27.568Z,12.00
2018-09-01T04:11:55.114Z,12.00
2018-09-01T04:14:22.674Z,12.00
2018-09-01T04:16:50.229Z,11.90
2018-09-01T04:19:18.622Z,11.90
2018-09-01T04:21:48.004Z,11.90
2018-09-01T04:24:15.975Z,11.80
2018-09-01T04:26:44.048Z,11.70
2018-09-01T04:29:11.716Z,11.70
2018-09-01T04:31:39.369Z,11.60
2018-09-01T04:34:06.920Z,11.60
2018-09-01T04:36:34.484Z,11.50
2018-09-01T04:39:02.087Z,11.60
2018-09-01T04:41:29.646Z,11.60
2018-09-01T04:43:57.204Z,11.60
2018-09-01T04:46:24.857Z,11.60
2018-09-01T04:48:52.396Z,11.60
2018-09-01T04:51:19.930Z,11.70
2018-09-01T04:53:47.461Z,11.70
2018-09-01T04:56:15.177Z,11.80
2018-09-01T04:58:42.741Z,11.90
2018-09-01T05:01:10.385Z,12.10
2018-09-01T05:03:37.849Z,12.30
2018-09-01T05:06:05.433Z,12.50
2018-09-01T05:08:33.013Z,12.60
2018-09-01T05:11:00.585Z,12.80
2018-09-01T05:13:28.129Z,12.90
2018-09-01T05:15:55.692Z,13.10
2018-09-01T05:18:23.220Z,13.20
2018-09-01T05:20:50.760Z,13.30
2018-09-01T05:23:18.300Z,13.40
2018-09-01T05:25:45.888Z,13.50
2018-09-01T05:28:13.436Z,13.60
2018-09-01T05:30:41.004Z,13.70
2018-09-01T05:33:08.582Z,13.80
2018-09-01T05:35:36.167Z,13.80
2018-09-01T05:38:03.912Z,13.90
2018-09-01T05:40:31.467Z,14.00
2018-09-01T05:42:59.016Z,14.10
2018-09-01T05:45:26.572Z,14.20
2018-09-01T05:47:54.252Z,14.30
2018-09-01T05:50:21.792Z,14.50
2018-09-01T05:52:49.354Z,14.60
2018-09-01T05:55:16.908Z,14.60
2018-09-01T05:57:44.452Z,14.60
2018-09-01T06:00:12.022Z,14.60
2018-09-01T06:02:39.546Z,14.60
2018-09-01T06:05:07.282Z,14.60
2018-09-01T06:07:35.048Z,14.60
2018-09-01T06:10:02.725Z,14.60
2018-09-01T06:12:30.461Z,14.50
2018-09-01T06:14:58.026Z,14.50
2018-09-01T06:17:25.580Z,14.60
2018-09-01T06:19:53.124Z,14.80
2018-09-01T06:22:20.650Z,14.90
2018-09-01T06:24:48.235Z,15.10
2018-09-01T06:27:22.285Z,15.30
2018-09-01T06:29:49.825Z,15.50
2018-09-01T06:32:17.721Z,15.70
2018-09-01T06:34:45.283Z,15.90
2018-09-01T06:37:12.828Z,16.10
2018-09-01T06:39:40.361Z,16.40
2018-09-01T06:42:07.917Z,16.80
2018-09-01T06:44:35.467Z,17.00
2018-09-01T06:47:03.029Z,17.20
2018-09-01T06:49:30.641Z,17.30
2018-09-01T06:51:58.233Z,17.40
2018-09-01T06:54:25.784Z,17.60
2018-09-01T06:56:53.304Z,17.70
2018-09-01T06:59:20.854Z,17.80
2018-09-01T07:01:48.460Z,17.90
2018-09-01T07:04:16.018Z,18.00
2018-09-01T07:06:43.576Z,17.90
2018-09-01T07:09:11.138Z,17.90
2018-09-01T07:11:38.706Z,17.90
2018-09-01T07:14:06.304Z,18.00
2018-09-01T07:16:34.197Z,18.10
2018-09-01T07:19:01.744Z,18.30
2018-09-01T07:21:29.285Z,18.60
2018-09-01T07:23:56.858Z,18.90
2018-09-01T07:26:24.401Z,19.10
2018-09-01T07:28:51.936Z,19.20
2018-09-01T07:31:19.865Z,19.50
2018-09-01T07:33:47.025Z,19.80
2018-09-01T07:36:14.630Z,20.10
2018-09-01T07:38:42.178Z,20.20
2018-09-01T07:41:09.740Z,20.30
2018-09-01T07:43:37.272Z,20.40
2018-09-01T07:46:04.838Z,20.40
2018-09-01T07:48:32.380Z,20.40
2018-09-01T07:50:59.945Z,20.40
2018-09-01T07:53:27.476Z,20.40
2018-09-01T07:55:55.030Z,20.40
2018-09-01T07:58:22.566Z,20.40
2018-09-01T08:00:50.109Z,20.20
2018-09-01T08:03:17.649Z,20.20
2018-09-01T08:05:58.498Z,20.20
2018-09-01T08:08:26.095Z,20.20
2018-09-01T08:14:14.631Z,19.90
2018-09-01T08:16:42.197Z,19.90
2018-09-01T08:19:09.768Z,19.80
2018-09-01T08:21:37.513Z,19.70
2018-09-01T08:24:05.064Z,19.60
2018-09-01T08:26:32.613Z,19.60
2018-09-01T08:29:00.404Z,19.60
2018-09-01T08:31:47.932Z,19.50
2018-09-01T08:34:15.473Z,19.40
2018-09-01T08:36:43.046Z,19.40
2018-09-01T08:39:10.919Z,19.40
2018-09-01T08:41:38.477Z,19.40
2018-09-01T08:44:06.073Z,19.50
2018-09-01T08:46:33.633Z,19.60
2018-09-01T08:49:01.211Z,19.70
2018-09-01T08:51:29.072Z,19.90
2018-09-01T08:53:56.624Z,20.10
2018-09-01T08:56:24.176Z,20.20
2018-09-01T08:58:51.730Z,20.30
2018-09-01T09:01:19.325Z,20.30
2018-09-01T09:03:46.869Z,20.20
2018-09-01T09:09:40.472Z,20.20
2018-09-01T09:12:08.016Z,20.20
2018-09-01T09:14:35.558Z,20.20
2018-09-01T09:17:03.212Z,20.10
2018-09-01T09:19:30.744Z,20.20
2018-09-01T09:21:58.290Z,20.10
2018-09-01T09:24:25.841Z,20.10
2018-09-01T09:26:53.381Z,20.20
2018-09-01T09:29:20.941Z,20.20
2018-09-01T09:31:48.472Z,20.30
2018-09-01T09:34:16.042Z,20.30
2018-09-01T09:36:43.624Z,20.20
2018-09-01T09:39:11.209Z,20.10
2018-09-01T09:41:39.213Z,20.00
2018-09-01T09:44:06.781Z,19.90
2018-09-01T09:46:34.640Z,20.00
2018-09-01T09:49:02.264Z,20.10
2018-09-01T09:51:29.796Z,20.10
2018-09-01T09:53:57.329Z,20.20
2018-09-01T09:56:24.876Z,20.20
2018-09-01T09:58:52.444Z,20.20
2018-09-01T10:01:25.640Z,20.10
2018-09-01T10:03:53.214Z,20.10
2018-09-01T10:06:20.800Z,20.10
2018-09-01T10:08:48.327Z,20.00
2018-09-01T10:11:15.902Z,19.90
2018-09-01T10:13:43.454Z,19.90
2018-09-01T10:16:11.022Z,19.80
2018-09-01T10:18:38.592Z,19.80
2018-09-01T10:21:06.140Z,19.90
2018-09-01T10:23:33.667Z,19.80
2018-09-01T10:26:01.244Z,19.80
2018-09-01T10:28:28.812Z,19.70
2018-09-01T10:30:56.352Z,19.70
2018-09-01T10:33:23.892Z,19.70
2018-09-01T10:35:51.471Z,19.80
2018-09-01T10:38:19.020Z,19.80
2018-09-01T10:40:46.644Z,19.90
2018-09-01T10:43:14.193Z,19.90
2018-09-01T10:45:41.748Z,19.90
2018-09-01T10:48:09.300Z,20.00
2018-09-01T10:50:37.037Z,20.00
2018-09-01T10:53:04.772Z,20.00
2018-09-01T10:55:32.308Z,20.00
2018-09-01T10:57:59.861Z,20.00
2018-09-01T11:00:27.406Z,20.00
2018-09-01T11:02:54.960Z,20.00
2018-09-01T11:05:22.588Z,20.10
2018-09-01T11:07:50.269Z,20.10
2018-09-01T11:10:17.901Z,20.10
2018-09-01T11:12:45.460Z,20.10
2018-09-01T11:15:13.009Z,20.10
2018-09-01T11:17:40.599Z,20.00
2018-09-01T11:20:08.161Z,20.00
2018-09-01T11:22:35.759Z,20.00
2018-09-01T11:25:03.370Z,20.00
2018-09-01T11:27:30.951Z,20.10
2018-09-01T11:29:58.460Z,20.10
2018-09-01T11:32:26.169Z,20.10
2018-09-01T11:34:53.748Z,20.10
2018-09-01T11:37:21.301Z,20.10
2018-09-01T11:39:48.848Z,20.20
2018-09-01T11:42:16.407Z,20.30
2018-09-01T11:44:43.958Z,20.40
2018-09-01T11:47:11.509Z,20.40
2018-09-01T11:49:39.073Z,20.40
2018-09-01T11:52:06.701Z,20.40
2018-09-01T11:54:34.299Z,20.40
2018-09-01T11:57:01.849Z,20.30
2018-09-01T11:59:29.452Z,20.20
2018-09-01T12:02:14.141Z,20.10
2018-09-01T12:04:41.679Z,20.10
2018-09-01T12:07:09.267Z,20.00
2018-09-01T12:09:36.801Z,20.00
2018-09-01T12:12:04.376Z,20.00
2018-09-01T12:14:31.912Z,19.90
2018-09-01T12:16:59.474Z,19.80
2018-09-01T12:19:27.036Z,19.70
2018-09-01T12:21:54.605Z,19.60
2018-09-01T12:24:22.224Z,19.50
2018-09-01T12:26:49.802Z,19.40
2018-09-01T12:29:17.352Z,19.20
2018-09-01T12:31:44.924Z,19.10
2018-09-01T12:34:12.474Z,19.10
2018-09-01T12:36:40.034Z,19.10
2018-09-01T12:39:07.593Z,19.00
2018-09-01T12:41:35.149Z,19.00
2018-09-01T12:44:02.708Z,18.90
2018-09-01T12:46:30.252Z,18.80
2018-09-01T12:48:57.804Z,18.80
2018-09-01T12:51:25.352Z,18.70
2018-09-01T12:53:52.892Z,18.60
2018-09-01T12:56:20.431Z,18.60
2018-09-01T12:58:48.010Z,18.60
2018-09-01T13:01:15.573Z,18.50
2018-09-01T13:03:43.126Z,18.50
2018-09-01T13:06:11.382Z,18.40
2018-09-01T13:08:39.246Z,18.30
2018-09-01T13:11:06.792Z,18.30
2018-09-01T13:13:34.465Z,18.20
2018-09-01T13:16:02.020Z,18.10
2018-09-01T13:18:29.589Z,18.10
2018-09-01T13:20:57.754Z,18.10
2018-09-01T13:23:25.724Z,18.10
2018-09-01T13:25:53.597Z,18.10
2018-09-01T13:28:21.148Z,18.10
2018-09-01T13:30:48.912Z,18.20
2018-09-01T13:33:16.476Z,18.20
2018-09-01T13:35:44.036Z,18.20
2018-09-01T13:38:11.622Z,18.30
2018-09-01T13:40:39.372Z,18.30
2018-09-01T13:43:06.933Z,18.30
2018-09-01T13:45:34.490Z,18.30
2018-09-01T13:48:02.043Z,18.30
2018-09-01T13:50:29.580Z,18.30
2018-09-01T13:52:57.149Z,18.30
2018-09-01T13:55:24.692Z,18.40
2018-09-01T13:57:52.245Z,18.40
2018-09-01T14:00:19.792Z,18.40
2018-09-01T14:02:47.325Z,18.40
2018-09-01T14:05:14.886Z,18.40
2018-09-01T14:07:42.447Z,18.40
2018-09-01T14:10:10.184Z,18.40
2018-09-01T14:12:37.729Z,18.40
2018-09-01T14:15:05.302Z,18.40
2018-09-01T14:17:32.840Z,18.50
2018-09-01T14:20:00.416Z,18.50
2018-09-01T14:22:27.960Z,18.50
2018-09-01T14:24:55.533Z,18.50
2018-09-01T14:27:23.901Z,18.50
2018-09-01T14:29:51.479Z,18.50
2018-09-01T14:32:19.069Z,18.50
2018-09-01T14:34:46.665Z,18.60
2018-09-01T14:37:14.495Z,18.60
2018-09-01T14:39:42.036Z,18.60
2018-09-01T14:42:09.614Z,18.60
2018-09-01T14:44:37.181Z,18.60
2018-09-01T14:47:04.786Z,18.70
2018-09-01T14:49:39.840Z,18.70
2018-09-01T14:52:07.403Z,18.80
2018-09-01T14:55:00.764Z,18.80
2018-09-01T14:57:35.049Z,18.90
2018-09-01T15:00:02.676Z,18.90
2018-09-01T15:02:30.252Z,18.90
2018-09-01T15:04:57.840Z,18.90
2018-09-01T15:07:25.426Z,18.90
2018-09-01T15:09:52.990Z,18.90
2018-09-01T15:12:20.559Z,18.90
2018-09-01T15:14:48.112Z,19.00
2018-09-01T15:17:15.666Z,19.00
2018-09-01T15:19:43.212Z,19.00
2018-09-01T15:22:10.987Z,19.00
2018-09-01T15:24:38.545Z,18.90
2018-09-01T15:27:06.115Z,18.90
2018-09-01T15:29:33.652Z,18.70
2018-09-01T15:32:01.211Z,18.60
2018-09-01T15:34:28.770Z,18.40
2018-09-01T15:36:56.322Z,18.30
2018-09-01T15:39:23.873Z,18.20
2018-09-01T15:41:51.425Z,18.10
2018-09-01T15:44:18.981Z,18.10
2018-09-01T15:46:46.520Z,18.10
2018-09-01T15:49:14.099Z,18.00
2018-09-01T15:51:41.648Z,18.00
2018-09-01T15:54:09.237Z,17.90
2018-09-01T15:56:36.866Z,17.90
2018-09-01T15:59:04.392Z,17.80
2018-09-01T16:01:31.932Z,17.70
2018-09-01T16:03:59.500Z,17.60
2018-09-01T16:06:27.056Z,17.60
2018-09-01T16:08:54.609Z,17.50
2018-09-01T16:11:22.148Z,17.50
2018-09-01T16:13:49.714Z,17.40
2018-09-01T16:16:17.257Z,17.40
2018-09-01T16:18:44.822Z,17.40
2018-09-01T16:21:12.361Z,17.40
2018-09-01T16:23:39.904Z,17.30
2018-09-01T16:26:07.474Z,17.20
2018-09-01T16:31:09.264Z,17.00
2018-09-01T16:33:36.827Z,17.00
2018-09-01T16:36:04.401Z,16.90
2018-09-01T16:38:31.949Z,16.90
2018-09-01T16:40:59.537Z,16.80
2018-09-01T16:43:27.101Z,16.80
2018-09-01T16:45:54.792Z,16.70
2018-09-01T16:48:22.358Z,16.70
2018-09-01T16:50:49.906Z,16.60
2018-09-01T16:53:17.471Z,16.50
2018-09-01T16:55:45.038Z,16.50
2018-09-01T16:58:12.601Z,16.50
2018-09-01T17:00:40.271Z,16.40
2018-09-01T17:03:07.755Z,16.30
2018-09-01T17:05:35.333Z,16.30
2018-09-01T17:08:02.909Z,16.20
2018-09-01T17:10:30.477Z,16.10
2018-09-01T17:12:58.021Z,16.10
2018-09-01T17:15:25.589Z,16.10
2018-09-01T17:17:53.170Z,16.00
2018-09-01T17:20:20.729Z,16.00
2018-09-01T17:22:48.276Z,16.00
2018-09-01T17:25:15.855Z,16.00
2018-09-01T17:27:43.430Z,16.00
2018-09-01T17:30:10.977Z,16.00
2018-09-01T17:32:38.544Z,16.00
2018-09-01T17:35:06.122Z,16.00
2018-09-01T17:37:33.683Z,15.90
2018-09-01T17:40:01.270Z,15.90
2018-09-01T17:42:28.866Z,15.90
2018-09-01T17:44:56.424Z,15.90
2018-09-01T17:47:23.988Z,15.90
2018-09-01T17:49:51.546Z,15.90
2018-09-01T17:52:19.122Z,15.90
2018-09-01T17:54:46.724Z,15.90
2018-09-01T17:57:14.304Z,15.90
2018-09-01T17:59:41.852Z,15.90
2018-09-01T18:02:09.750Z,15.90
2018-09-01T18:04:37.282Z,15.90
2018-09-01T18:07:04.921Z,15.90
2018-09-01T18:09:32.496Z,15.90
2018-09-01T18:12:00.065Z,15.90
2018-09-01T18:14:27.644Z,15.80
2018-09-01T18:16:55.215Z,15.80
2018-09-01T18:19:22.784Z,15.80
2018-09-01T18:21:50.388Z,15.80
2018-09-01T18:24:17.929Z,15.80
2018-09-01T18:26:45.528Z,15.70
2018-09-01T18:29:13.068Z,15.70
2018-09-01T18:31:40.629Z,15.70
2018-09-01T18:34:08.181Z,15.60
2018-09-01T18:36:35.789Z,15.60
2018-09-01T18:39:05.540Z,15.50
2018-09-01T18:41:33.148Z,15.50
2018-09-01T18:44:00.739Z,15.40
2018-09-01T18:46:28.288Z,15.40
2018-09-01T18:48:55.868Z,15.40
2018-09-01T18:51:23.427Z,15.40
2018-09-01T18:53:51.219Z,15.30
2018-09-01T18:56:18.807Z,15.30
2018-09-01T18:58:46.376Z,15.30
2018-09-01T19:01:13.945Z,15.30
2018-09-01T19:03:41.553Z,15.30
2018-09-01T19:06:09.168Z,15.30
2018-09-01T19:08:42.365Z,15.30
2018-09-01T19:11:14.334Z,15.30
2018-09-01T19:13:41.929Z,15.30
2018-09-01T19:16:09.472Z,15.30
2018-09-01T19:18:37.252Z,15.20
2018-09-01T19:21:05.106Z,15.20
2018-09-01T19:23:32.676Z,15.20
2018-09-01T19:26:00.257Z,15.20
2018-09-01T19:28:27.852Z,15.20
2018-09-01T19:30:55.412Z,15.20
2018-09-01T19:33:22.979Z,15.20
2018-09-01T19:35:50.532Z,15.20
2018-09-01T19:38:18.165Z,15.30
2018-09-01T19:40:45.733Z,15.30
2018-09-01T19:43:13.312Z,15.30
2018-09-01T19:45:41.076Z,15.30
2018-09-01T19:48:08.438Z,15.30
2018-09-01T19:50:35.972Z,15.30
2018-09-01T19:53:03.791Z,15.30
2018-09-01T19:55:31.390Z,15.30
2018-09-01T19:57:59.024Z,15.40
2018-09-01T20:00:26.638Z,15.40
2018-09-01T20:02:54.237Z,15.40
2018-09-01T20:05:21.851Z,15.40
2018-09-01T20:07:49.397Z,15.30
2018-09-01T20:10:17.002Z,15.30
2018-09-01T20:12:44.575Z,15.30
2018-09-01T20:15:12.142Z,15.30
2018-09-01T20:17:39.761Z,15.30
2018-09-01T20:20:07.997Z,15.30
2018-09-01T20:22:35.740Z,15.30
2018-09-01T20:25:03.322Z,15.30
2018-09-01T20:27:30.992Z,15.30
2018-09-01T20:29:58.578Z,15.30
2018-09-01T20:32:26.188Z,15.30
2018-09-01T20:34:58.352Z,15.30
2018-09-01T20:37:25.905Z,15.20
2018-09-01T20:39:53.458Z,15.20
2018-09-01T20:42:21.047Z,15.20
2018-09-01T20:44:48.679Z,15.20
2018-09-01T20:47:16.236Z,15.20
2018-09-01T20:49:43.776Z,15.20
2018-09-01T20:52:11.349Z,15.20
2018-09-01T20:54:38.900Z,15.20
2018-09-01T20:57:06.514Z,15.20
2018-09-01T20:59:34.132Z,15.30
2018-09-01T21:02:28.524Z,15.30
2018-09-01T21:04:56.073Z,15.30
2018-09-01T21:07:23.652Z,15.30
2018-09-01T21:09:51.213Z,15.30
2018-09-01T21:12:18.767Z,15.30
2018-09-01T21:14:53.163Z,15.30
2018-09-01T21:17:20.753Z,15.40
2018-09-01T21:19:48.319Z,15.40
2018-09-01T21:22:15.889Z,15.40
2018-09-01T21:24:43.468Z,15.40
2018-09-01T21:27:11.033Z,15.40
2018-09-01T21:29:38.589Z,15.40
2018-09-01T21:32:06.157Z,15.40
2018-09-01T21:34:33.742Z,15.40
2018-09-01T21:37:01.287Z,15.40
2018-09-01T21:39:28.850Z,15.40
2018-09-01T21:41:56.408Z,15.50
2018-09-01T21:44:23.968Z,15.50
2018-09-01T21:46:51.500Z,15.50
2018-09-01T21:49:19.067Z,15.50
2018-09-01T21:51:46.615Z,15.50
2018-09-01T21:54:14.174Z,15.50
2018-09-01T21:56:41.728Z,15.50
2018-09-01T21:59:09.285Z,15.50
2018-09-01T22:01:36.836Z,15.50
2018-09-01T22:04:04.428Z,15.50
2018-09-01T22:06:32.072Z,15.50
2018-09-01T22:08:59.835Z,15.40
2018-09-01T22:11:27.398Z,15.40
2018-09-01T22:13:54.968Z,15.40
2018-09-01T22:16:22.535Z,15.40
2018-09-01T22:18:50.098Z,15.40
2018-09-01T22:21:17.636Z,15.40
2018-09-01T22:23:45.210Z,15.40
2018-09-01T22:26:12.761Z,15.30
2018-09-01T22:28:40.356Z,15.30
2018-09-01T22:31:07.892Z,15.40
2018-09-01T22:33:35.477Z,15.40
2018-09-01T22:36:03.041Z,15.40
2018-09-01T22:38:30.883Z,15.40
2018-09-01T22:40:58.453Z,15.40
2018-09-01T22:43:25.992Z,15.40
2018-09-01T22:45:53.530Z,15.40
2018-09-01T22:48:21.064Z,15.40
2018-09-01T22:50:48.722Z,15.40
2018-09-01T22:53:16.263Z,15.50
2018-09-01T22:55:43.788Z,15.50
2018-09-01T22:58:11.354Z,15.40
2018-09-01T23:00:38.912Z,15.50
2018-09-01T23:03:06.464Z,15.50
2018-09-01T23:05:34.013Z,15.50
2018-09-01T23:08:01.641Z,15.50
2018-09-01T23:10:29.201Z,15.40
2018-09-01T23:12:56.740Z,15.50
2018-09-01T23:15:24.292Z,15.50
2018-09-01T23:17:51.824Z,15.40
2018-09-01T23:20:19.377Z,15.50
2018-09-01T23:22:49.729Z,15.40
2018-09-01T23:25:17.281Z,15.50
2018-09-01T23:27:44.824Z,15.50
2018-09-01T23:30:12.381Z,15.50
2018-09-01T23:32:39.914Z,15.50
2018-09-01T23:35:07.460Z,15.50
2018-09-01T23:37:35.058Z,15.50
2018-09-01T23:40:02.621Z,15.50
2018-09-01T23:42:30.202Z,15.50
2018-09-01T23:44:57.763Z,15.50
2018-09-01T23:47:25.313Z,15.40
2018-09-01T23:49:52.876Z,15.50
2018-09-01T23:52:20.413Z,15.40
2018-09-01T23:54:47.964Z,15.50
2018-09-01T23:57:15.601Z,15.40
2018-09-01T23:59:43.188Z,15.40
